createdAt,value
2023-05-21T00:00:15.373Z,101494.66
2023-05-21T00:04:20.372Z,101501.78
2023-05-21T00:08:23.936Z,101493.72
2023-05-21T00:12:28.281Z,101486.25
2023-05-21T00:16:31.665Z,101482.63
2023-05-21T00:20:37.282Z,101478.19
2023-05-21T00:24:41.001Z,101479.28
2023-05-21T00:28:44.236Z,101477.31
2023-05-21T00:32:47.900Z,101479.81
2023-05-21T00:36:55.413Z,101472.66
2023-05-21T00:40:58.502Z,101472.31
2023-05-21T00:45:03.989Z,101464.31
2023-05-21T00:49:08.912Z,101465.41
2023-05-21T00:53:15.399Z,101455.47
2023-05-21T00:57:21.197Z,101458.72
2023-05-21T01:01:25.831Z,101457.03
2023-05-21T01:05:29.360Z,101453.69
2023-05-21T01:09:34.621Z,101449.50
2023-05-21T01:13:40.993Z,101445.84
2023-05-21T01:17:46.078Z,101441.13
2023-05-21T01:21:53.838Z,101439.69
2023-05-21T01:25:58.348Z,101436.34
2023-05-21T01:30:03.428Z,101437.94
2023-05-21T01:34:13.196Z,101439.56
2023-05-21T01:38:23.710Z,101425.78
2023-05-21T01:42:33.330Z,101425.97
2023-05-21T01:46:37.044Z,101427.91
2023-05-21T01:50:41.618Z,101424.78
2023-05-21T01:54:44.488Z,101426.66
2023-05-21T01:58:50.278Z,101419.72
2023-05-21T02:02:54.232Z,101419.38
2023-05-21T02:06:57.067Z,101415.72
2023-05-21T02:11:00.287Z,101415.16
2023-05-21T02:15:06.098Z,101414.00
2023-05-21T02:19:10.492Z,101413.09
2023-05-21T02:23:14.006Z,101404.25
2023-05-21T02:27:18.287Z,101400.88
2023-05-21T02:31:23.200Z,101400.56
2023-05-21T02:35:26.501Z,101398.84
2023-05-21T02:39:29.840Z,101396.63
2023-05-21T02:43:32.930Z,101404.19
2023-05-21T02:47:39.118Z,101406.88
2023-05-21T02:51:43.822Z,101399.16
2023-05-21T02:55:47.496Z,101396.66
2023-05-21T02:59:50.491Z,101389.78
2023-05-21T03:03:57.576Z,101393.53
2023-05-21T03:08:00.799Z,101387.72
2023-05-21T03:12:05.843Z,101385.78
2023-05-21T03:16:09.255Z,101379.69
2023-05-21T03:20:19.048Z,101380.78
2023-05-21T03:24:22.210Z,101375.22
2023-05-21T03:28:25.784Z,101379.31
2023-05-21T03:32:29.058Z,101375.75
2023-05-21T03:36:34.038Z,101372.44
2023-05-21T03:40:39.271Z,101380.56
2023-05-21T03:44:42.287Z,101377.50
2023-05-21T03:49:15.371Z,101378.31
2023-05-21T03:53:20.534Z,101375.34
2023-05-21T03:57:24.221Z,101382.47
2023-05-21T04:01:28.658Z,101381.38
2023-05-21T04:05:33.730Z,101384.13
2023-05-21T04:09:39.507Z,101381.38
2023-05-21T04:13:42.586Z,101383.31
2023-05-21T04:17:46.571Z,101385.53
2023-05-21T04:21:50.035Z,101393.50
2023-05-21T04:25:57.087Z,101387.44
2023-05-21T04:30:00.292Z,101394.06
2023-05-21T04:34:03.906Z,101391.09
2023-05-21T04:38:08.546Z,101393.91
2023-05-21T04:42:14.465Z,101397.28
2023-05-21T04:46:18.090Z,101401.34
2023-05-21T04:50:21.856Z,101398.19
2023-05-21T04:54:25.002Z,101409.72
2023-05-21T04:58:29.887Z,101392.53
2023-05-21T05:02:34.268Z,101389.00
2023-05-21T05:06:37.670Z,101396.75
2023-05-21T05:10:41.402Z,101392.91
2023-05-21T05:14:46.056Z,101392.09
2023-05-21T05:18:52.459Z,101388.84
2023-05-21T05:22:56.928Z,101389.72
2023-05-21T05:27:00.363Z,101383.50
2023-05-21T05:31:11.629Z,101388.78
2023-05-21T05:35:15.188Z,101387.25
2023-05-21T05:39:18.703Z,101388.97
2023-05-21T05:43:23.089Z,101374.25
2023-05-21T05:47:28.100Z,101379.59
2023-05-21T05:51:31.629Z,101371.50
2023-05-21T05:55:36.857Z,101368.81
2023-05-21T05:59:40.912Z,101375.44
2023-05-21T06:03:46.387Z,101367.31
2023-05-21T06:07:52.141Z,101367.09
2023-05-21T06:11:57.237Z,101364.28
2023-05-21T06:16:00.634Z,101369.88
2023-05-21T06:20:06.572Z,101374.34
2023-05-21T06:24:11.404Z,101374.34
2023-05-21T06:28:14.488Z,101372.81
2023-05-21T06:32:23.057Z,101373.91
2023-05-21T06:36:30.221Z,101366.84
2023-05-21T06:40:34.140Z,101377.28
2023-05-21T06:44:45.947Z,101378.50
2023-05-21T06:49:15.071Z,101373.41
2023-05-21T06:53:20.680Z,101373.84
2023-05-21T06:57:49.886Z,101368.22
2023-05-21T07:01:52.828Z,101360.91
2023-05-21T07:05:56.008Z,101363.13
2023-05-21T07:10:00.526Z,101366.44
2023-05-21T07:14:06.487Z,101367.03
2023-05-21T07:18:12.157Z,101366.28
2023-05-21T07:22:15.530Z,101377.25
2023-05-21T07:26:19.938Z,101371.50
2023-05-21T07:30:23.724Z,101372.06
2023-05-21T07:34:26.954Z,101369.56
2023-05-21T07:38:30.603Z,101361.53
2023-05-21T07:42:35.018Z,101351.84
2023-05-21T07:46:38.824Z,101351.22
2023-05-21T07:50:41.701Z,101367.31
2023-05-21T07:54:44.696Z,101360.97
2023-05-21T07:58:48.867Z,101359.72
2023-05-21T08:02:53.383Z,101349.22
2023-05-21T08:06:56.674Z,101347.44
2023-05-21T08:11:00.458Z,101345.25
2023-05-21T08:15:06.061Z,101345.53
2023-05-21T08:19:14.049Z,101336.72
2023-05-21T08:23:21.929Z,101328.91
2023-05-21T08:27:30.161Z,101335.19
2023-05-21T08:31:35.842Z,101337.56
2023-05-21T08:35:41.131Z,101343.69
2023-05-21T08:40:13.259Z,101344.66
2023-05-21T08:44:34.403Z,101346.84
2023-05-21T08:48:39.420Z,101352.69
2023-05-21T08:52:43.353Z,101348.78
2023-05-21T08:56:49.530Z,101352.50
2023-05-21T09:00:56.043Z,101345.63
2023-05-21T09:05:04.826Z,101341.00
2023-05-21T09:09:16.002Z,101345.34
2023-05-21T09:13:26.493Z,101338.81
2023-05-21T09:17:40.920Z,101331.44
2023-05-21T09:22:24.281Z,101338.97
2023-05-21T09:26:29.058Z,101336.13
2023-05-21T09:30:36.765Z,101327.13
2023-05-21T09:34:40.043Z,101336.06
2023-05-21T09:38:46.293Z,101325.22
2023-05-21T09:42:50.460Z,101330.50
2023-05-21T09:46:58.685Z,101318.44
2023-05-21T09:51:12.400Z,101315.91
2023-05-21T09:55:18.188Z,101308.75
2023-05-21T09:59:40.815Z,101303.25
2023-05-21T10:03:50.583Z,101301.84
2023-05-21T10:08:01.964Z,101293.00
2023-05-21T10:12:15.642Z,101285.75
2023-05-21T10:16:19.752Z,101284.31
2023-05-21T10:20:23.632Z,101285.47
2023-05-21T10:24:31.153Z,101270.25
2023-05-21T10:28:38.736Z,101269.94
2023-05-21T10:32:42.867Z,101269.16
2023-05-21T10:36:49.861Z,101265.00
2023-05-21T10:40:54.611Z,101260.41
2023-05-21T10:45:09.378Z,101259.09
2023-05-21T10:49:28.192Z,101252.75
2023-05-21T10:53:44.630Z,101251.75
2023-05-21T10:58:21.188Z,101252.63
2023-05-21T11:02:38.000Z,101240.31
2023-05-21T11:06:53.016Z,101239.94
2023-05-21T11:10:59.084Z,101238.63
2023-05-21T11:15:08.266Z,101233.91
2023-05-21T11:19:19.090Z,101234.97
2023-05-21T11:23:22.555Z,101230.59
2023-05-21T11:27:36.984Z,101239.69
2023-05-21T11:31:40.227Z,101232.41
2023-05-21T11:35:59.274Z,101230.78
2023-05-21T11:40:25.937Z,101222.06
2023-05-21T11:44:44.137Z,101229.03
2023-05-21T11:48:47.820Z,101225.13
2023-05-21T11:52:53.113Z,101226.28
2023-05-21T11:56:56.659Z,101222.78
2023-05-21T12:01:01.455Z,101212.72
2023-05-21T12:05:06.466Z,101209.56
2023-05-21T12:09:12.619Z,101206.34
2023-05-21T12:13:16.127Z,101210.00
2023-05-21T12:17:21.073Z,101210.59
2023-05-21T12:21:25.368Z,101205.91
2023-05-21T12:25:32.020Z,101210.00
2023-05-21T12:29:35.864Z,101210.16
2023-05-21T12:33:38.868Z,101212.78
2023-05-21T12:37:44.691Z,101210.09
2023-05-21T12:41:54.507Z,101211.16
2023-05-21T12:45:58.045Z,101214.00
2023-05-21T12:50:02.779Z,101211.03
2023-05-21T12:54:13.161Z,101214.19
2023-05-21T12:58:23.013Z,101211.63
2023-05-21T13:02:29.238Z,101209.00
2023-05-21T13:06:44.147Z,101215.53
2023-05-21T13:10:47.291Z,101211.22
2023-05-21T13:14:54.972Z,101211.81
2023-05-21T13:18:57.977Z,101209.22
2023-05-21T13:23:02.132Z,101201.44
2023-05-21T13:27:06.689Z,101189.44
2023-05-21T13:31:15.545Z,101198.91
2023-05-21T13:35:20.655Z,101181.56
2023-05-21T13:39:27.693Z,101175.00
2023-05-21T13:43:30.456Z,101176.31
2023-05-21T13:47:40.377Z,101168.06
2023-05-21T13:52:03.463Z,101175.00
2023-05-21T13:56:21.171Z,101173.59
2023-05-21T14:00:25.552Z,101171.38
2023-05-21T14:04:30.368Z,101159.50
2023-05-21T14:08:33.199Z,101164.00
2023-05-21T14:12:36.550Z,101161.06
2023-05-21T14:16:40.091Z,101153.69
2023-05-21T14:20:45.070Z,101141.69
2023-05-21T14:24:48.215Z,101157.94
2023-05-21T14:28:51.983Z,101149.78
2023-05-21T14:32:57.913Z,101152.91
2023-05-21T14:37:03.411Z,101158.03
2023-05-21T14:41:12.000Z,101151.38
2023-05-21T14:45:19.045Z,101151.06
2023-05-21T14:49:34.506Z,101166.31
2023-05-21T14:53:38.823Z,101171.44
2023-05-21T14:57:42.310Z,101162.25
2023-05-21T15:01:45.133Z,101163.06
2023-05-21T15:05:47.982Z,101166.50
2023-05-21T15:09:52.143Z,101162.13
2023-05-21T15:13:55.201Z,101167.03
2023-05-21T15:18:01.191Z,101161.38
2023-05-21T15:22:04.109Z,101161.53
2023-05-21T15:26:09.714Z,101161.06
2023-05-21T15:30:13.523Z,101157.50
2023-05-21T15:34:22.585Z,101152.81
2023-05-21T15:38:25.667Z,101151.22
2023-05-21T15:42:31.595Z,101142.28
2023-05-21T15:46:34.553Z,101137.72
2023-05-21T15:50:38.056Z,101146.19
2023-05-21T15:54:40.878Z,101134.06
2023-05-21T15:58:45.772Z,101134.97
2023-05-21T16:02:48.652Z,101137.34
2023-05-21T16:06:51.767Z,101127.00
2023-05-21T16:10:54.706Z,101131.66
2023-05-21T16:14:59.674Z,101125.03
2023-05-21T16:19:02.796Z,101123.00
2023-05-21T16:23:06.865Z,101117.97
2023-05-21T16:27:10.022Z,101121.22
2023-05-21T16:31:14.645Z,101108.81
2023-05-21T16:35:31.051Z,101105.03
2023-05-21T16:39:42.435Z,101103.00
2023-05-21T16:43:45.222Z,101098.44
2023-05-21T16:47:50.278Z,101104.19
2023-05-21T16:51:53.600Z,101101.34
2023-05-21T16:55:56.488Z,101096.47
2023-05-21T16:59:59.662Z,101098.78
2023-05-21T17:04:04.470Z,101102.22
2023-05-21T17:08:14.426Z,101091.75
2023-05-21T17:12:17.888Z,101088.38
2023-05-21T17:16:20.908Z,101094.59
2023-05-21T17:20:33.428Z,101093.97
2023-05-21T17:24:36.314Z,101098.72
2023-05-21T17:28:56.212Z,101103.69
2023-05-21T17:33:14.016Z,101097.47
2023-05-21T17:37:24.436Z,101095.56
2023-05-21T17:41:28.176Z,101103.25
2023-05-21T17:45:30.952Z,101110.94
2023-05-21T17:49:34.474Z,101102.44
2023-05-21T17:53:39.033Z,101106.38
2023-05-21T17:57:42.420Z,101109.31
2023-05-21T18:01:52.722Z,101107.50
2023-05-21T18:06:20.409Z,101096.22
2023-05-21T18:10:24.576Z,101101.44
2023-05-21T18:14:27.994Z,101099.16
2023-05-21T18:18:31.069Z,101105.69
2023-05-21T18:22:36.658Z,101104.00
2023-05-21T18:26:52.850Z,101099.59
2023-05-21T18:31:00.692Z,101106.56
2023-05-21T18:35:03.705Z,101099.84
2023-05-21T18:39:07.548Z,101094.94
2023-05-21T18:43:13.817Z,101091.16
2023-05-21T18:47:16.629Z,101092.28
2023-05-21T18:51:19.699Z,101080.13
2023-05-21T18:55:23.839Z,101090.06
2023-05-21T18:59:29.448Z,101085.28
2023-05-21T19:03:33.109Z,101088.63
2023-05-21T19:07:47.377Z,101090.69
2023-05-21T19:11:51.490Z,101091.72
2023-05-21T19:16:04.260Z,101094.66
2023-05-21T19:20:24.266Z,101100.66
2023-05-21T19:24:27.539Z,101099.63
2023-05-21T19:28:30.570Z,101097.53
2023-05-21T19:32:35.363Z,101100.09
2023-05-21T19:36:52.434Z,101107.09
2023-05-21T19:41:02.272Z,101106.38
2023-05-21T19:45:09.460Z,101108.25
2023-05-21T19:49:15.825Z,101117.19
2023-05-21T19:53:18.948Z,101116.69
2023-05-21T19:57:23.444Z,101114.00
2023-05-21T20:01:40.163Z,101118.06
2023-05-21T20:06:04.541Z,101113.75
2023-05-21T20:10:22.631Z,101111.91
2023-05-21T20:14:25.547Z,101115.25
2023-05-21T20:18:28.863Z,101105.94
2023-05-21T20:22:33.486Z,101105.22
2023-05-21T20:26:36.659Z,101094.78
2023-05-21T20:30:53.567Z,101093.75
2023-05-21T20:35:03.452Z,101092.81
2023-05-21T20:39:09.234Z,101085.72
2023-05-21T20:43:13.753Z,101080.91
2023-05-21T20:47:16.879Z,101085.72
2023-05-21T20:51:19.889Z,101081.41
2023-05-21T20:55:25.926Z,101087.53
2023-05-21T20:59:30.692Z,101096.97
2023-05-21T21:03:34.763Z,101105.59
2023-05-21T21:07:38.849Z,101122.28
2023-05-21T21:11:43.216Z,101164.06
2023-05-21T21:15:46.577Z,101165.75
2023-05-21T21:19:52.758Z,101158.41
2023-05-21T21:23:56.106Z,101159.00
2023-05-21T21:28:00.485Z,101151.38
2023-05-21T21:32:04.041Z,101149.69
2023-05-21T21:36:07.696Z,101153.78
2023-05-21T21:40:11.744Z,101146.91
2023-05-21T21:44:16.034Z,101143.63
2023-05-21T21:48:19.044Z,101120.81
2023-05-21T21:52:22.348Z,101123.28
2023-05-21T21:56:26.133Z,101131.22
2023-05-21T22:00:31.548Z,101127.03
2023-05-21T22:04:34.401Z,101120.47
2023-05-21T22:08:37.632Z,101127.38
2023-05-21T22:12:41.387Z,101118.94
2023-05-21T22:16:47.412Z,101111.13
2023-05-21T22:20:52.511Z,101111.81
2023-05-21T22:24:55.448Z,101118.09
2023-05-21T22:28:59.069Z,101115.69
2023-05-21T22:33:03.347Z,101119.44
2023-05-21T22:37:06.368Z,101115.03
2023-05-21T22:41:09.485Z,101112.03
2023-05-21T22:45:13.314Z,101116.03
2023-05-21T22:49:17.366Z,101114.41
2023-05-21T22:53:20.750Z,101096.72
2023-05-21T22:57:23.430Z,101086.03
2023-05-21T23:01:26.241Z,101074.75
2023-05-21T23:05:30.565Z,101073.09
2023-05-21T23:09:33.381Z,101069.22
2023-05-21T23:13:36.645Z,101071.16
2023-05-21T23:17:39.591Z,101075.84
2023-05-21T23:21:45.398Z,101066.81
2023-05-21T23:25:48.129Z,101072.03
2023-05-21T23:29:51.410Z,101066.50
2023-05-21T23:33:54.390Z,101073.16
2023-05-21T23:37:58.856Z,101071.28
2023-05-21T23:42:01.656Z,101085.53
2023-05-21T23:46:04.697Z,101082.88
2023-05-21T23:50:09.084Z,101083.19
2023-05-21T23:54:16.844Z,101077.06
2023-05-21T23:58:19.642Z,101066.38
